Aviation Digital Data Service (ADDS)

Output produced by METARs form (0447 UTC 26 April 2015)
found at http://aviationweather.gov/adds/metars/
 
KATL 260331Z 2604/2706 23010KT P6SM SCT050 SCT200 
     FM261000 24010KT 5SM BR BKN012 BKN035 
     FM261300 28012KT P6SM BKN020 
     FM261600 29018G28KT P6SM SCT050 
     FM270000 31012KT P6SM SCT080